createdAt,value
2022-12-13T00:01:30.405Z,0.40
2022-12-13T00:04:00.006Z,0.40
2022-12-13T00:06:28.212Z,0.30
2022-12-13T00:08:55.540Z,0.40
2022-12-13T00:11:23.071Z,0.40
2022-12-13T00:13:50.537Z,0.20
2022-12-13T00:16:22.687Z,0.40
2022-12-13T00:18:54.971Z,0.80
2022-12-13T00:21:32.974Z,0.30
2022-12-13T00:24:01.321Z,0.30
2022-12-13T00:26:31.040Z,0.40
2022-12-13T00:29:03.473Z,0.20
2022-12-13T00:34:21.119Z,0.50
2022-12-13T00:36:48.688Z,0.20
2022-12-13T00:39:16.853Z,0.50
2022-12-13T00:41:45.032Z,0.50
2022-12-13T00:44:13.663Z,0.20
2022-12-13T00:46:41.841Z,0.50
2022-12-13T00:49:11.049Z,0.40
2022-12-13T00:51:38.612Z,0.40
2022-12-13T00:54:06.564Z,0.40
2022-12-13T00:56:34.446Z,0.00
2022-12-13T00:59:01.714Z,0.30
2022-12-13T01:01:32.082Z,0.20
2022-12-13T01:04:02.364Z,0.10
2022-12-13T01:06:38.831Z,0.20
2022-12-13T01:09:10.184Z,-0.10
2022-12-13T01:11:37.444Z,0.30
2022-12-13T01:14:04.988Z,0.20
2022-12-13T01:16:32.496Z,0.10
2022-12-13T01:18:59.834Z,0.10
2022-12-13T01:21:27.068Z,0.10
2022-12-13T01:24:06.822Z,0.10
2022-12-13T01:26:34.152Z,0.10
2022-12-13T01:29:01.508Z,0.00
2022-12-13T01:31:28.979Z,0.10
2022-12-13T01:33:56.428Z,0.00
2022-12-13T01:36:27.816Z,0.00
2022-12-13T01:38:58.077Z,0.00
2022-12-13T01:41:28.561Z,0.00
2022-12-13T01:44:01.243Z,0.00
2022-12-13T01:46:38.223Z,-0.10
2022-12-13T01:49:19.651Z,-0.10
2022-12-13T01:51:48.172Z,0.00
2022-12-13T01:54:21.647Z,0.00
2022-12-13T01:56:54.088Z,-0.20
2022-12-13T01:59:28.586Z,-0.20
2022-12-13T02:02:00.580Z,0.00
2022-12-13T02:04:57.066Z,-0.20
2022-12-13T02:07:29.624Z,-0.20
2022-12-13T02:09:59.997Z,-0.20
2022-12-13T02:12:30.719Z,-0.10
2022-12-13T02:15:04.889Z,-0.20
2022-12-13T02:17:54.402Z,-0.10
2022-12-13T02:20:48.691Z,-0.30
2022-12-13T02:23:30.904Z,-0.20
2022-12-13T02:26:18.530Z,-0.30
2022-12-13T02:28:58.279Z,-0.20
2022-12-13T02:31:49.593Z,-0.30
2022-12-13T02:34:34.614Z,-0.30
2022-12-13T02:37:32.337Z,-0.30
2022-12-13T02:40:11.471Z,-0.30
2022-12-13T02:43:06.962Z,-0.30
2022-12-13T02:45:47.031Z,-0.40
2022-12-13T02:48:23.971Z,-0.20
2022-12-13T02:50:52.720Z,-0.40
2022-12-13T02:53:24.311Z,-0.40
2022-12-13T02:55:51.628Z,-0.20
2022-12-13T02:58:23.955Z,-0.40
2022-12-13T03:01:29.081Z,-0.20
2022-12-13T03:04:20.091Z,0.10
2022-12-13T03:07:07.023Z,-0.40
2022-12-13T03:09:46.271Z,0.70
2022-12-13T03:12:56.496Z,-0.40
2022-12-13T03:15:29.395Z,-0.40
2022-12-13T03:18:18.781Z,-0.50
2022-12-13T03:21:04.492Z,-0.40
2022-12-13T03:23:31.781Z,-0.20
2022-12-13T03:26:04.922Z,-0.30
2022-12-13T03:28:32.206Z,-0.40
2022-12-13T03:30:59.488Z,-0.50
2022-12-13T03:33:26.725Z,-0.40
2022-12-13T03:35:54.058Z,-0.30
2022-12-13T03:38:23.186Z,-0.40
2022-12-13T03:41:02.916Z,-0.40
2022-12-13T03:43:30.390Z,-0.30
2022-12-13T03:45:57.719Z,-0.30
2022-12-13T03:48:25.096Z,-0.50
2022-12-13T03:50:53.808Z,-0.40
2022-12-13T03:53:32.551Z,-0.30
2022-12-13T03:56:05.626Z,0.30
2022-12-13T03:58:37.306Z,-0.40
2022-12-13T04:01:08.137Z,-0.50
2022-12-13T04:03:36.280Z,-0.40
2022-12-13T04:06:04.284Z,-0.50
2022-12-13T04:08:31.674Z,-0.50
2022-12-13T04:10:58.974Z,-0.50
2022-12-13T04:13:35.301Z,-0.50
2022-12-13T04:16:03.130Z,-0.70
2022-12-13T04:18:30.620Z,-0.60
2022-12-13T04:20:58.078Z,-0.50
2022-12-13T04:23:25.325Z,-0.70
2022-12-13T04:25:52.657Z,-0.60
2022-12-13T04:28:21.415Z,-0.60
2022-12-13T04:30:53.178Z,-0.70
2022-12-13T04:33:22.617Z,-0.70
2022-12-13T04:35:50.608Z,-0.60
2022-12-13T04:38:18.132Z,-0.60
2022-12-13T04:40:45.560Z,-0.60
2022-12-13T04:43:12.884Z,-0.60
2022-12-13T04:45:40.402Z,-0.70
2022-12-13T04:48:08.659Z,-0.60
2022-12-13T04:50:36.503Z,-0.70
2022-12-13T04:53:03.821Z,-0.60
2022-12-13T04:55:31.094Z,-0.60
2022-12-13T04:57:58.309Z,-0.70
2022-12-13T05:00:25.660Z,-0.60
2022-12-13T05:02:52.915Z,-0.70
2022-12-13T05:05:20.184Z,-0.70
2022-12-13T05:07:47.404Z,-0.60
2022-12-13T05:10:33.870Z,-0.70
2022-12-13T05:13:02.837Z,-0.60
2022-12-13T05:15:32.826Z,-0.70
2022-12-13T05:18:09.491Z,-0.70
2022-12-13T05:20:39.574Z,-0.70
2022-12-13T05:23:06.966Z,-0.70
2022-12-13T05:25:36.855Z,-0.70
2022-12-13T05:28:09.007Z,-0.70
2022-12-13T05:30:53.249Z,-0.70
2022-12-13T05:33:22.764Z,-0.70
2022-12-13T05:35:50.985Z,-0.70
2022-12-13T05:38:20.176Z,-0.80
2022-12-13T05:40:47.437Z,-0.50
2022-12-13T05:43:21.473Z,-0.70
2022-12-13T05:45:50.258Z,-0.70
2022-12-13T05:48:24.912Z,-0.80
2022-12-13T05:51:10.503Z,-0.70
2022-12-13T05:53:41.320Z,-0.70
2022-12-13T05:56:11.051Z,-0.60
2022-12-13T05:58:39.788Z,-0.70
2022-12-13T06:01:10.763Z,-0.60
2022-12-13T06:03:38.489Z,-0.60
2022-12-13T06:06:08.485Z,-0.70
2022-12-13T06:08:36.626Z,-0.70
2022-12-13T06:11:09.936Z,-0.70
2022-12-13T06:13:42.366Z,-0.60
2022-12-13T06:16:21.779Z,-0.60
2022-12-13T06:18:57.499Z,-0.60
2022-12-13T06:21:43.430Z,-0.60
2022-12-13T06:24:14.948Z,-0.60
2022-12-13T06:26:42.491Z,-0.50
2022-12-13T06:29:23.957Z,-0.60
2022-12-13T06:32:01.409Z,-0.60
2022-12-13T06:34:34.818Z,-0.60
2022-12-13T06:37:05.847Z,-0.60
2022-12-13T06:39:33.959Z,-0.60
2022-12-13T06:42:03.284Z,-0.60
2022-12-13T06:44:30.739Z,-0.50
2022-12-13T06:47:11.313Z,-0.60
2022-12-13T06:49:41.999Z,-0.60
2022-12-13T06:52:14.166Z,-0.60
2022-12-13T06:54:42.556Z,-0.40
2022-12-13T06:57:11.537Z,-0.60
2022-12-13T06:59:39.068Z,-0.50
2022-12-13T07:02:24.201Z,-0.50
2022-12-13T07:04:53.645Z,-0.20
2022-12-13T07:07:21.004Z,-0.40
2022-12-13T07:09:48.243Z,-0.50
2022-12-13T07:12:15.497Z,-0.50
2022-12-13T07:14:42.828Z,-0.50
2022-12-13T07:17:10.799Z,-0.60
2022-12-13T07:19:38.656Z,-0.60
2022-12-13T07:22:06.341Z,-0.50
2022-12-13T07:24:35.495Z,-0.60
2022-12-13T07:27:03.611Z,-0.50
2022-12-13T07:29:30.980Z,-0.50
2022-12-13T07:32:01.133Z,-0.50
2022-12-13T07:34:30.199Z,-0.50
2022-12-13T07:36:57.568Z,-0.50
2022-12-13T07:39:28.587Z,-0.40
2022-12-13T07:41:56.500Z,-0.40
2022-12-13T07:44:24.688Z,-0.40
2022-12-13T07:46:52.505Z,-0.40
2022-12-13T07:49:19.977Z,-0.40
2022-12-13T07:51:47.984Z,-0.30
2022-12-13T07:54:15.329Z,-0.20
2022-12-13T07:56:42.615Z,-0.30
2022-12-13T07:59:10.778Z,-0.20
2022-12-13T08:01:38.219Z,0.00
2022-12-13T08:04:06.059Z,-0.20
2022-12-13T08:06:37.950Z,-0.30
2022-12-13T08:09:05.938Z,-0.30
2022-12-13T08:11:33.576Z,-0.30
2022-12-13T08:14:00.806Z,-0.20
2022-12-13T08:16:30.346Z,-0.20
2022-12-13T08:19:01.874Z,-0.20
2022-12-13T08:21:57.896Z,-0.20
2022-12-13T08:24:28.021Z,-0.20
2022-12-13T08:27:03.213Z,-0.20
2022-12-13T08:29:34.219Z,-0.10
2022-12-13T08:32:10.875Z,0.00
2022-12-13T08:34:39.004Z,-0.10
2022-12-13T08:37:06.585Z,-0.10
2022-12-13T08:39:36.711Z,-0.10
2022-12-13T08:42:18.744Z,-0.10
2022-12-13T08:44:48.797Z,0.00
2022-12-13T08:47:23.333Z,-0.10
2022-12-13T08:50:04.046Z,0.00
2022-12-13T08:52:42.209Z,0.20
2022-12-13T08:55:12.172Z,0.00
2022-12-13T08:57:40.673Z,0.00
2022-12-13T09:00:11.496Z,0.10
2022-12-13T09:02:39.170Z,0.10
2022-12-13T09:05:08.217Z,0.10
2022-12-13T09:07:36.446Z,0.10
2022-12-13T09:10:25.677Z,0.20
2022-12-13T09:13:01.138Z,0.20
2022-12-13T09:15:34.390Z,0.30
2022-12-13T09:18:04.760Z,0.40
2022-12-13T09:20:41.572Z,0.50
2022-12-13T09:23:13.606Z,0.60
2022-12-13T09:26:05.220Z,0.50
2022-12-13T09:28:36.925Z,0.40
2022-12-13T09:31:12.831Z,0.60
2022-12-13T09:33:40.929Z,0.90
2022-12-13T09:36:11.053Z,0.80
2022-12-13T09:38:38.856Z,0.60
2022-12-13T09:41:30.961Z,0.80
2022-12-13T09:44:32.544Z,0.80
2022-12-13T09:47:03.808Z,0.90
2022-12-13T09:49:52.162Z,0.90
2022-12-13T09:52:23.572Z,1.00
2022-12-13T09:54:55.492Z,0.90
2022-12-13T09:57:34.145Z,1.00
2022-12-13T10:00:08.183Z,1.10
2022-12-13T10:02:49.307Z,1.00
2022-12-13T10:05:35.715Z,1.10
2022-12-13T10:08:08.266Z,1.20
2022-12-13T10:10:35.629Z,1.30
2022-12-13T10:13:25.197Z,1.30
2022-12-13T10:16:04.694Z,1.40
2022-12-13T10:18:35.768Z,1.40
2022-12-13T10:21:09.861Z,1.50
2022-12-13T10:23:59.782Z,1.50
2022-12-13T10:26:25.129Z,1.50
2022-12-13T10:29:04.110Z,1.60
2022-12-13T10:31:42.691Z,1.60
2022-12-13T10:34:35.866Z,1.70
2022-12-13T10:37:24.672Z,1.70
2022-12-13T10:39:52.017Z,1.70
2022-12-13T10:42:22.457Z,1.80
2022-12-13T10:45:10.468Z,2.00
2022-12-13T10:47:37.834Z,1.90
2022-12-13T10:50:05.636Z,1.90
2022-12-13T10:52:43.125Z,2.00
2022-12-13T10:55:34.962Z,1.80
2022-12-13T10:58:07.588Z,1.90
2022-12-13T11:00:45.364Z,1.90
2022-12-13T11:03:28.627Z,2.00
2022-12-13T11:06:18.081Z,2.00
2022-12-13T11:08:45.326Z,2.00
2022-12-13T11:11:15.128Z,2.00
2022-12-13T11:13:46.314Z,2.10
2022-12-13T11:16:50.677Z,2.30
2022-12-13T11:19:26.307Z,2.20
2022-12-13T11:21:54.391Z,2.30
2022-12-13T11:24:26.131Z,2.30
2022-12-13T11:26:58.781Z,2.30
2022-12-13T11:29:50.970Z,2.40
2022-12-13T11:32:26.861Z,2.40
2022-12-13T11:35:09.152Z,2.50
2022-12-13T11:38:01.380Z,2.60
2022-12-13T11:40:44.333Z,2.60
2022-12-13T11:43:29.301Z,2.70
2022-12-13T11:46:00.888Z,2.70
2022-12-13T11:48:41.762Z,2.80
2022-12-13T11:51:12.993Z,2.80
2022-12-13T11:53:48.170Z,2.90
2022-12-13T11:56:32.103Z,3.00
2022-12-13T11:59:31.531Z,3.10
2022-12-13T12:02:23.316Z,3.20
2022-12-13T12:05:00.374Z,3.30
2022-12-13T12:49:01.113Z,3.00
2022-12-13T12:51:48.027Z,3.00
2022-12-13T12:54:33.668Z,3.00
2022-12-13T12:57:45.410Z,3.00
2022-12-13T13:00:17.063Z,3.00
2022-12-13T13:03:22.124Z,3.10
2022-12-13T13:06:02.690Z,3.00
2022-12-13T13:08:44.327Z,3.10
2022-12-13T13:11:23.956Z,3.30
2022-12-13T13:14:01.488Z,2.90
2022-12-13T13:16:34.983Z,3.10
2022-12-13T13:19:26.161Z,3.10
2022-12-13T13:22:06.408Z,3.00
2022-12-13T13:25:11.476Z,3.70
2022-12-13T13:27:43.987Z,3.00
2022-12-13T13:30:25.363Z,4.10
2022-12-13T13:32:55.293Z,3.10
2022-12-13T13:35:33.177Z,3.00
2022-12-13T13:38:21.942Z,3.00
2022-12-13T13:40:49.702Z,3.20
2022-12-13T13:43:32.177Z,3.70
2022-12-13T13:46:00.365Z,3.00
2022-12-13T13:48:37.155Z,3.00
2022-12-13T13:52:23.745Z,3.10
2022-12-13T13:55:01.660Z,3.10
2022-12-13T13:58:09.816Z,3.20
2022-12-13T14:01:11.325Z,3.40
2022-12-13T14:03:57.688Z,2.90
2022-12-13T14:07:01.194Z,3.00
2022-12-13T14:10:05.192Z,3.00
2022-12-13T14:12:51.661Z,3.10
2022-12-13T14:15:40.473Z,3.50
2022-12-13T14:18:48.085Z,3.20
2022-12-13T14:21:49.594Z,3.20
2022-12-13T14:24:49.390Z,3.20
2022-12-13T14:27:36.938Z,3.10
2022-12-13T14:30:26.869Z,3.10
2022-12-13T14:32:53.598Z,3.10
2022-12-13T14:35:26.883Z,3.10
2022-12-13T14:37:59.281Z,3.00
2022-12-13T14:40:35.455Z,3.00
2022-12-13T14:43:03.702Z,2.90
2022-12-13T14:45:32.776Z,2.80
2022-12-13T14:48:04.552Z,2.80
2022-12-13T14:50:35.973Z,2.80
2022-12-13T14:53:04.525Z,2.90
2022-12-13T14:55:37.285Z,3.00
2022-12-13T14:58:17.070Z,3.00
2022-12-13T15:00:45.967Z,3.10
2022-12-13T15:03:23.685Z,3.00
2022-12-13T15:06:02.601Z,2.90
2022-12-13T15:08:31.950Z,2.90
2022-12-13T15:11:00.763Z,2.90
2022-12-13T15:13:48.268Z,2.90
2022-12-13T15:16:26.579Z,2.80
2022-12-13T15:19:31.084Z,2.80
2022-12-13T15:22:15.078Z,2.80
2022-12-13T15:24:49.178Z,2.50
2022-12-13T15:27:24.376Z,2.70
2022-12-13T15:29:54.154Z,2.70
2022-12-13T15:32:23.183Z,2.70
2022-12-13T15:34:51.897Z,2.70
2022-12-13T15:37:32.808Z,2.60
2022-12-13T15:40:06.679Z,2.60
2022-12-13T15:42:37.044Z,2.60
2022-12-13T15:45:17.234Z,2.50
2022-12-13T15:47:46.766Z,2.50
2022-12-13T15:50:34.165Z,2.40
2022-12-13T15:53:05.017Z,2.30
2022-12-13T15:55:36.405Z,2.40
2022-12-13T15:58:04.116Z,2.50
2022-12-13T16:00:34.589Z,2.50
2022-12-13T16:03:21.689Z,2.40
2022-12-13T16:05:54.809Z,2.40
2022-12-13T16:08:32.138Z,2.40
2022-12-13T16:11:00.153Z,2.30
2022-12-13T16:13:30.265Z,2.40
2022-12-13T16:16:27.263Z,2.20
2022-12-13T16:19:00.221Z,2.40
2022-12-13T16:21:28.577Z,2.30
2022-12-13T16:23:55.938Z,2.40
2022-12-13T16:26:28.217Z,2.30
2022-12-13T16:28:59.280Z,2.40
2022-12-13T16:31:31.276Z,2.30
2022-12-13T16:33:58.653Z,2.20
2022-12-13T16:36:26.655Z,2.30
2022-12-13T16:38:53.944Z,2.40
2022-12-13T16:41:22.160Z,2.20
2022-12-13T16:43:56.228Z,2.20
2022-12-13T16:47:14.341Z,2.10
2022-12-13T16:49:21.759Z,2.40
2022-12-13T16:51:49.521Z,2.20
2022-12-13T16:54:18.534Z,2.10
2022-12-13T16:56:46.483Z,2.30
2022-12-13T16:59:17.596Z,2.20
2022-12-13T17:01:45.608Z,2.40
2022-12-13T17:04:21.022Z,2.20
2022-12-13T17:06:54.792Z,2.20
2022-12-13T17:09:24.051Z,2.00
2022-12-13T17:11:51.750Z,2.30
2022-12-13T17:14:19.015Z,2.10
2022-12-13T17:16:46.349Z,2.20
2022-12-13T17:19:15.569Z,2.30
2022-12-13T17:21:43.428Z,2.10
2022-12-13T17:24:10.740Z,2.30
2022-12-13T17:26:37.992Z,2.30
2022-12-13T17:29:05.415Z,2.40
2022-12-13T17:31:35.860Z,2.20
2022-12-13T17:34:04.391Z,2.30
2022-12-13T17:36:32.217Z,2.20
2022-12-13T17:38:59.432Z,2.20
2022-12-13T17:41:26.744Z,2.30
2022-12-13T17:43:59.261Z,2.30
2022-12-13T17:46:26.554Z,2.30
2022-12-13T17:48:53.833Z,2.30
2022-12-13T17:51:21.050Z,2.30
2022-12-13T17:53:48.285Z,2.30
2022-12-13T17:56:16.125Z,2.20
2022-12-13T17:58:43.887Z,2.20
2022-12-13T18:01:16.610Z,2.40
2022-12-13T18:03:44.826Z,2.50
2022-12-13T18:06:12.191Z,2.50
2022-12-13T18:08:40.512Z,2.10
2022-12-13T18:11:31.643Z,2.00
2022-12-13T18:13:56.689Z,2.10
2022-12-13T18:16:30.331Z,2.00
2022-12-13T18:19:01.220Z,2.00
2022-12-13T18:21:28.522Z,2.00
2022-12-13T18:23:56.276Z,1.90
2022-12-13T18:26:24.760Z,1.90
2022-12-13T18:28:52.297Z,2.00
2022-12-13T18:31:24.026Z,1.90
2022-12-13T18:33:53.431Z,2.00
2022-12-13T18:36:22.769Z,1.90
2022-12-13T18:38:50.204Z,1.90
2022-12-13T18:41:23.300Z,1.90
2022-12-13T18:43:59.869Z,2.10
2022-12-13T18:46:29.575Z,2.00
2022-12-13T18:48:57.567Z,2.00
2022-12-13T18:51:25.395Z,2.20
2022-12-13T18:53:53.496Z,1.80
2022-12-13T18:56:20.910Z,1.90
2022-12-13T18:58:49.427Z,1.90
2022-12-13T19:01:17.593Z,1.90
2022-12-13T19:03:46.651Z,1.90
2022-12-13T19:06:17.101Z,1.80
2022-12-13T19:08:48.153Z,1.90
2022-12-13T19:11:15.665Z,1.90
2022-12-13T19:13:43.128Z,1.80
2022-12-13T19:16:12.794Z,1.90
2022-12-13T19:18:41.361Z,1.80
2022-12-13T19:21:12.347Z,1.80
2022-12-13T19:23:40.949Z,1.70
2022-12-13T19:26:10.428Z,1.90
2022-12-13T19:28:41.335Z,1.80
2022-12-13T19:31:11.010Z,1.90
2022-12-13T19:33:38.874Z,1.70
2022-12-13T19:36:06.719Z,1.70
2022-12-13T19:38:34.437Z,1.90
2022-12-13T19:41:08.731Z,1.90
2022-12-13T19:43:36.030Z,1.90
2022-12-13T19:46:03.712Z,1.90
2022-12-13T19:48:31.408Z,1.90
2022-12-13T19:51:00.249Z,1.90
2022-12-13T19:53:29.243Z,3.10
2022-12-13T19:55:56.977Z,1.90
2022-12-13T19:58:25.060Z,1.80
2022-12-13T20:00:52.672Z,2.00
2022-12-13T20:03:20.132Z,1.90
2022-12-13T20:05:57.524Z,1.90
2022-12-13T20:08:24.986Z,1.90
2022-12-13T20:11:07.194Z,1.90
2022-12-13T20:13:35.563Z,1.70
2022-12-13T20:16:04.795Z,1.80
2022-12-13T20:18:32.980Z,1.90
2022-12-13T20:21:13.471Z,1.80
2022-12-13T20:23:48.703Z,1.90
2022-12-13T20:26:21.050Z,1.80
2022-12-13T20:28:49.269Z,1.80
2022-12-13T20:31:25.124Z,1.70
2022-12-13T20:34:03.764Z,1.70
2022-12-13T20:36:31.466Z,1.80
2022-12-13T20:39:01.389Z,1.80
2022-12-13T20:41:30.400Z,1.80
2022-12-13T20:43:59.389Z,1.80
2022-12-13T20:46:28.577Z,1.80
2022-12-13T20:48:57.718Z,1.70
2022-12-13T20:51:27.077Z,1.60
2022-12-13T20:53:54.886Z,1.70
2022-12-13T20:56:24.521Z,1.80
2022-12-13T20:58:52.164Z,1.80
2022-12-13T21:01:30.924Z,1.70
2022-12-13T21:04:00.261Z,1.80
2022-12-13T21:06:28.769Z,1.80
2022-12-13T21:08:59.933Z,1.90
2022-12-13T21:11:41.666Z,1.90
2022-12-13T21:14:23.467Z,1.80
2022-12-13T21:16:56.334Z,1.80
2022-12-13T21:19:33.104Z,3.10
2022-12-13T21:22:03.369Z,2.20
2022-12-13T21:24:30.604Z,2.00
2022-12-13T21:26:57.963Z,1.80
2022-12-13T21:29:25.281Z,1.90
2022-12-13T21:31:53.355Z,1.90
2022-12-13T21:34:22.101Z,2.10
2022-12-13T21:36:53.204Z,1.90
2022-12-13T21:39:23.008Z,1.90
2022-12-13T21:41:51.412Z,1.90
2022-12-13T21:44:19.650Z,1.90
2022-12-13T21:47:11.354Z,1.90
2022-12-13T21:49:35.118Z,1.90
2022-12-13T21:52:02.444Z,1.90
2022-12-13T21:54:29.683Z,1.90
2022-12-13T21:57:15.681Z,1.90
2022-12-13T21:59:43.158Z,1.80
2022-12-13T22:02:18.518Z,2.00
2022-12-13T22:04:54.890Z,1.90
2022-12-13T22:07:28.004Z,2.10
2022-12-13T22:09:56.216Z,2.00
2022-12-13T22:12:35.846Z,2.30
2022-12-13T22:15:21.922Z,1.80
2022-12-13T22:17:49.138Z,1.90
2022-12-13T22:20:16.459Z,1.80
2022-12-13T22:22:44.325Z,2.20
2022-12-13T22:25:12.147Z,2.00
2022-12-13T22:27:39.384Z,2.00
2022-12-13T22:30:07.450Z,3.00
2022-12-13T22:32:34.668Z,1.90
2022-12-13T22:35:02.065Z,2.00
2022-12-13T22:37:29.568Z,1.90
2022-12-13T22:39:56.819Z,1.90
2022-12-13T22:42:24.109Z,1.90
2022-12-13T22:44:51.335Z,2.00
2022-12-13T22:47:19.164Z,2.00
2022-12-13T22:49:48.876Z,1.90
2022-12-13T22:52:17.181Z,1.90
2022-12-13T22:54:44.453Z,1.90
2022-12-13T22:57:11.764Z,1.70
2022-12-13T22:59:39.185Z,1.90
2022-12-13T23:02:06.649Z,2.00
2022-12-13T23:04:33.981Z,2.20
2022-12-13T23:07:01.195Z,1.90
2022-12-13T23:09:28.442Z,1.90
2022-12-13T23:12:14.299Z,1.90
2022-12-13T23:14:41.581Z,2.00
2022-12-13T23:17:08.864Z,2.00
2022-12-13T23:19:49.013Z,1.80
2022-12-13T23:22:21.136Z,1.90
2022-12-13T23:24:49.313Z,1.90
2022-12-13T23:27:17.318Z,1.90
2022-12-13T23:29:44.738Z,1.90
2022-12-13T23:32:12.621Z,1.90
2022-12-13T23:34:39.860Z,2.80
2022-12-13T23:37:07.064Z,2.00
2022-12-13T23:39:34.287Z,2.00
2022-12-13T23:42:01.532Z,1.90
2022-12-13T23:44:28.754Z,1.90
2022-12-13T23:46:56.077Z,1.90
2022-12-13T23:49:23.441Z,2.70
2022-12-13T23:51:50.686Z,2.00
2022-12-13T23:54:19.647Z,2.40
2022-12-13T23:56:47.648Z,1.90
2022-12-13T23:59:14.917Z,2.00
